Santa Maria Manuela — CSKO — position and weather

sailwx.info

Track history (hours):
 
Tides and Currents Weather Stations Pressure Air Temp Water Temp Dewpoint Dewpoint Depression Visibility Wind Speed Wind Dir Waves Ship Positions

Santa Maria Manuela

Last reported at 2018-Dec-07 05:50 UTC. Time now 2018-Dec-13 20:14 UTC.
Position N 31°26' W 016°05'.

Length 68 m; draft 4.3 m.

Type: Sailing vessel. MMSI: 255806006.

Date/timePositionNaut miles runAvg speedWind from/ knotsBaromVisibWave heightAir tempDewpointWater temp
2018-Dec-07 05:50N 31°26' W 016°05'5 4.8
2018-Dec-07 04:44N 31°21' W 016°05'1 4.8
2018-Dec-07 04:29N 31°20' W 016°04'  
2018-Dec-04 23:34N 28°47' W 015°31'1 7.3
2018-Dec-04 23:30N 28°47' W 015°31'4 7.3
2018-Dec-04 23:00N 28°43' W 015°30'4 7.1
2018-Dec-04 22:30N 28°40' W 015°29'5 7.2
2018-Dec-04 21:53N 28°36' W 015°28'  
2018-Nov-29 18:51N 26°11' W 016°29'2 4.3
2018-Nov-29 18:24N 26°10' W 016°30'  
Track history (hours):
 
Tides and Currents Weather Stations Pressure Air Temp Water Temp Dewpoint Dewpoint Depression Visibility Wind Speed Wind Dir Waves Ship Positions

Santa Maria Manuela

Last reported at 2018-Dec-07 05:50 UTC. Time now 2018-Dec-13 20:14 UTC.
Position N 31°26' W 016°05'.

Length 68 m; draft 4.3 m.

Type: Sailing vessel. MMSI: 255806006.

Date/timePositionNaut miles runAvg speedWind from/ knotsBaromVisibWave heightAir tempDewpointWater temp
2018-Dec-07 05:50N 31°26' W 016°05'5 4.8
2018-Dec-07 04:44N 31°21' W 016°05'1 4.8
2018-Dec-07 04:29N 31°20' W 016°04'  
2018-Dec-04 23:34N 28°47' W 015°31'1 7.3
2018-Dec-04 23:30N 28°47' W 015°31'4 7.3
2018-Dec-04 23:00N 28°43' W 015°30'4 7.1
2018-Dec-04 22:30N 28°40' W 015°29'5 7.2
2018-Dec-04 21:53N 28°36' W 015°28'  
2018-Nov-29 18:51N 26°11' W 016°29'2 4.3
2018-Nov-29 18:24N 26°10' W 016°30'  

Dump ship's entire track history